Comares, Spain

4:56 AM CEST on September 05, 2015 (GMT +0200)
Valle Frontilla | | Change Station
CLOSE
Current Station
Personal Weather Station
Location: Moclinejo, ANDALUSIA
Elevation: 1982 ft
Nearby Weather Stations

Elev 1982 ft 36.79 °N, 4.26 °W | Updated 28 seconds ago

Clear
Clear
71.1 °F
Feels Like 77 °F
N
3.0
Wind Variable Wind from ESE
Gusts 3.0 mph

Today
High -- | Low -- °F
--% Chance of Precip.
Yesterday
High -- | Low -- °F
Precip. -- in
7:50 AM 8:40 PM
Waning Gibbous, 53% visible
Pressure 29.95 in
Visibility -9999.0 miles
Clouds
Heat Index 77 °F
Dew Point 49 °F
Humidity 45%
Rainfall 0.00 in
Snow Depth Not available.
UV Not available.
Pollen Not available.
Air Quality Not available.
Flu Activity Not available.
METAR LEMG 050230Z 27013KT CAVOK 25/11 Q1014 NOSIG
Pressure 29.95 in
Visibility -9999.0 miles
Clouds
Heat Index 77 °F
Dew Point 49 °F
Humidity 45%
Rainfall 0.00 in
Snow Depth Not available.
UV Not available.
Pollen Not available.
Air Quality Not available.
Flu Activity Not available.
METAR LEMG 050230Z 27013KT CAVOK 25/11 Q1014 NOSIG

10-Day Weather Forecast

×

Almanac

Astronomy

Sep. 05, 2015 Rise Set
Actual Time
Civil Twilight
Nautical Twilight
Astronomical Twilight
Moon
Length of Visible Light
Length of Day
Tomorrow will be .
, % of the Moon is Illuminated

Today's Extremes

Country Highs Country Lows

Community

WunderPhotos

Upload Photos

1,852,392 photos uploaded!

WunderBlogs® & News

Nearby

Air Quality

  Air Quality AQ Index Pollutant
Not available.

Snow Depth

Station Depth Elevation

Earthquake Activity

City Distance Mag. Time & Date
Minimum magnitude displayed is 2.5.

Coastal Water Temperatures

Place Temperature

Stations

Nearby Weather Stations

Station Location Temp. Windchill Dew Point Humidity Wind Precip. Elev Updated Type